Latest Weather Observations for Inglewood

IDQ60801

Issued at 1:35 am EST Friday 31 October 2014 (issued every 30 minutes, with the page automatically refreshed every 10 minutes)

About weather observations | Map of weather stations | Latest weather observations for QLD | Other Formats
Station Details ID: 041097 Name: INGLEWOOD FOREST Lat: -28.34 Lon: 150.94 Height: 379.0 m
Data from the previous 72 hours. | See also: Recent months at Inglewood
Date/Time
EST
Temp
°C
App
Temp
°C
Dew
Point
Rel
Hum
%
Delta-T
°C
Wind Press
QNH
hPa
Press
MSL
hPa
Rain
since 9 am
mm
Dir
 
Spd
km/h
Gust
km/h
Spd
kts
Gust
kts
31/01:30am - - - - - NE 13 19 7 10 - - 0.0
31/01:00am - - - - - NE 13 20 7 11 - - 0.0
31/12:30am - - - - - NE 11 19 6 10 - - 0.0
31/12:00am - - - - - NNE 15 26 8 14 - - 0.0
 
Date/Time
EST
Temp
°C
App
Temp
°C
Dew
Point
Rel
Hum
%
Delta-T
°C
Wind Press
QNH
hPa
Press
MSL
hPa
Rain
since 9 am
mm
Dir
 
Spd
km/h
Gust
km/h
Spd
kts
Gust
kts
30/11:30pm - - - - - NNE 17 24 9 13 - - 0.0
30/11:00pm - - - - - NNE 15 24 8 13 - - 0.0
30/10:30pm - - - - - NNE 13 26 7 14 - - 0.0
30/10:00pm - - - - - NE 15 22 8 12 - - 0.0
30/09:30pm - - - - - SSE 13 15 7 8 - - 0.0
30/09:00pm - - - - - S 13 15 7 8 - - 0.0
30/08:30pm - - - - - S 13 13 7 7 - - 0.0
30/08:00pm - - - - - S 11 13 6 7 - - 0.0
30/07:30pm - - - - - S 11 13 6 7 - - 0.0
30/07:00pm - - - - - S 11 13 6 7 - - 0.0
30/06:30pm - - - - - S 11 13 6 7 - - 0.0
30/06:00pm - - - - - S 7 11 4 6 - - 0.0
30/05:30pm - - - - - S 11 19 6 10 - - 0.0
30/05:00pm - - - - - S 15 22 8 12 - - 0.0
30/04:30pm - - - - - S 11 19 6 10 - - 0.0
30/04:00pm - - - - - WNW 11 17 6 9 - - 0.0
30/03:30pm - - - - - S 13 22 7 12 - - 0.0
30/03:00pm - - - - - WSW 11 20 6 11 - - 0.0
30/02:30pm - - - - - S 11 22 6 12 - - 0.0
30/02:00pm - - - - - W 20 28 11 15 - - 0.0
30/01:30pm - - - - - NNW 9 24 5 13 - - 0.0
30/01:00pm - - - - - WNW 19 30 10 16 - - 0.0
30/12:30pm - - - - - WSW 17 26 9 14 - - 0.0
30/12:00pm - - - - - ENE 9 15 5 8 - - 0.0
30/11:30am - - - - - WNW 9 17 5 9 - - 0.0
30/11:00am - - - - - ENE 9 26 5 14 - - 0.0
30/10:30am - - - - - NW 9 17 5 9 - - 0.0
30/10:00am - - - - - NE 7 15 4 8 - - 0.0
30/09:30am - - - - - NW 11 19 6 10 - - 0.0
30/09:00am - - - - - N 11 22 6 12 - - 0.0
30/08:30am - - - - - N 9 20 5 11 - - 0.0
30/08:00am - - - - - NE 11 19 6 10 - - 0.0
30/07:30am - - - - - NE 13 26 7 14 - - 0.0
30/07:00am - - - - - NE 13 20 7 11 - - 0.0
30/06:30am - - - - - NE 13 22 7 12 - - 0.0
30/06:00am - - - - - NE 11 19 6 10 - - 0.0
30/05:30am - - - - - NE 11 19 6 10 - - 0.0
30/05:00am - - - - - ENE 13 20 7 11 - - 0.0
30/04:30am - - - - - ENE 13 22 7 12 - - 0.0
30/04:00am - - - - - ENE 13 19 7 10 - - 0.0
30/03:30am - - - - - NE 13 19 7 10 - - 0.0
30/03:00am - - - - - NE 11 22 6 12 - - 0.0
30/02:30am - - - - - NE 11 19 6 10 - - 0.0
30/02:00am - - - - - NE 11 20 6 11 - - 0.0
30/01:30am - - - - - NE 13 19 7 10 - - 0.0
30/01:00am - - - - - NE 15 24 8 13 - - 0.0
30/12:30am - - - - - NE 13 26 7 14 - - 0.0
30/12:00am - - - - - NE 15 28 8 15 - - 0.0
 
Date/Time
EST
Temp
°C
App
Temp
°C
Dew
Point
Rel
Hum
%
Delta-T
°C
Wind Press
QNH
hPa
Press
MSL
hPa
Rain
since 9 am
mm
Dir
 
Spd
km/h
Gust
km/h
Spd
kts
Gust
kts
29/11:30pm - - - - - NE 13 22 7 12 - - 0.0
29/11:00pm - - - - - NE 13 22 7 12 - - 0.0
29/10:30pm - - - - - NNE 15 26 8 14 - - 0.0
29/10:00pm - - - - - NNE 13 20 7 11 - - 0.0
29/09:30pm - - - - - NE 13 19 7 10 - - 0.0
29/09:00pm - - - - - SW 13 15 7 8 - - 0.0
29/08:30pm - - - - - WSW 11 15 6 8 - - 0.0
29/08:00pm - - - - - WSW 13 15 7 8 - - 0.0
29/07:30pm - - - - - SW 13 17 7 9 - - 0.0
29/07:00pm - - - - - WSW 11 15 6 8 - - 0.0
29/06:30pm - - - - - WSW 11 13 6 7 - - 0.0
29/06:00pm - - - - - SW 9 15 5 8 - - 0.0
29/05:30pm - - - - - SW 11 20 6 11 - - 0.0
29/05:00pm - - - - - WSW 9 9 5 5 - - 0.0
29/04:30pm - - - - - SW 13 20 7 11 - - 0.0
29/04:00pm - - - - - SSW 17 24 9 13 - - 0.0
29/03:30pm - - - - - SW 11 19 6 10 - - 0.0
29/03:00pm - - - - - SSW 15 28 8 15 - - 0.0
29/02:30pm - - - - - SSW 9 17 5 9 - - 0.0
29/02:00pm - - - - - SW 17 26 9 14 - - 0.0
29/01:30pm - - - - - S 19 28 10 15 - - 0.0
29/01:00pm - - - - - SW 17 28 9 15 - - 0.0
29/12:30pm - - - - - SSW 20 32 11 17 - - 0.0
29/12:00pm - - - - - SSW 22 30 12 16 - - 0.0
29/11:30am - - - - - SW 19 24 10 13 - - 0.0
29/11:00am - - - - - S 17 30 9 16 - - 0.0
29/10:30am - - - - - SW 13 24 7 13 - - 0.0
29/10:00am - - - - - W 19 28 10 15 - - 0.0
29/09:30am - - - - - SSW 15 24 8 13 - - 0.0
29/09:00am - - - - - SSW 15 26 8 14 - - 0.0
29/08:30am - - - - - S 13 22 7 12 - - 0.0
29/08:00am - - - - - S 15 24 8 13 - - 0.0
29/07:30am - - - - - S 15 24 8 13 - - 0.0
29/07:00am - - - - - S 13 20 7 11 - - 0.0
29/06:30am - - - - - S 15 24 8 13 - - 0.0
29/06:00am - - - - - S 13 20 7 11 - - 0.0
29/05:30am - - - - - S 15 19 8 10 - - 0.0
29/05:00am - - - - - S 15 19 8 10 - - 0.0
29/04:30am - - - - - S 17 20 9 11 - - 0.0
29/04:00am - - - - - SSW 13 19 7 10 - - 0.0
29/03:30am - - - - - SSW 15 19 8 10 - - 0.0
29/03:00am - - - - - SSW 13 17 7 9 - - 0.0
29/02:30am - - - - - SSW 13 15 7 8 - - 0.0
29/02:00am - - - - - SSW 13 17 7 9 - - 0.0
29/01:30am - - - - - SSW 15 19 8 10 - - 0.0
29/01:00am - - - - - SSW 13 17 7 9 - - 0.0
29/12:30am - - - - - SSW 13 20 7 11 - - 0.0
29/12:00am - - - - - SW 15 20 8 11 - - 0.0
 
Date/Time
EST
Temp
°C
App
Temp
°C
Dew
Point
Rel
Hum
%
Delta-T
°C
Wind Press
QNH
hPa
Press
MSL
hPa
Rain
since 9 am
mm
Dir
 
Spd
km/h
Gust
km/h
Spd
kts
Gust
kts
28/11:30pm - - - - - SW 15 22 8 12 - - 0.0
28/11:00pm - - - - - SW 13 20 7 11 - - 0.0
28/10:30pm - - - - - SW 17 20 9 11 - - 0.0
28/10:00pm - - - - - SW 15 20 8 11 - - 0.0
28/09:30pm - - - - - SW 15 20 8 11 - - 0.0
28/09:00pm - - - - - SW 13 19 7 10 - - 0.0
28/08:30pm - - - - - SW 13 19 7 10 - - 0.0
28/08:00pm - - - - - SW 13 19 7 10 - - 0.0
28/07:30pm - - - - - SW 13 15 7 8 - - 0.0
28/07:00pm - - - - - WSW 13 15 7 8 - - 0.0
28/06:30pm - - - - - SW 15 20 8 11 - - 0.0
28/06:00pm - - - - - SW 17 28 9 15 - - 0.0
28/05:30pm - - - - - SW 19 28 10 15 - - 0.0
28/05:00pm - - - - - SW 22 35 12 19 - - 0.0
28/04:30pm - - - - - SSW 24 43 13 23 - - 0.0
28/04:00pm - - - - - SW 26 37 14 20 - - 0.0
28/03:30pm - - - - - WSW 26 37 14 20 - - 0.0
28/03:00pm - - - - - WSW 24 41 13 22 - - 0.0
28/02:30pm - - - - - WSW 20 37 11 20 - - 0.0
28/02:00pm - - - - - WSW 24 39 13 21 - - 0.0
28/01:30pm - - - - - WSW 22 37 12 20 - - 0.0
28/01:00pm - - - - - SW 24 43 13 23 - - 0.0
28/12:30pm - - - - - SW 20 41 11 22 - - 0.0
28/12:00pm - - - - - SSW 17 26 9 14 - - 0.0
28/11:30am - - - - - W 19 30 10 16 - - 0.0
28/11:00am - - - - - WSW 20 33 11 18 - - 0.0
28/10:30am - - - - - SSW 15 24 8 13 - - 0.0
28/10:00am - - - - - SSW 13 22 7 12 - - 0.0
28/09:30am - - - - - S 11 20 6 11 - - 0.0
28/09:00am - - - - - S 15 22 8 12 - - 0.0
28/08:30am - - - - - S 17 26 9 14 - - 0.0
28/08:00am - - - - - S 13 20 7 11 - - 0.0
28/07:30am - - - - - SW 11 17 6 9 - - 0.0
28/07:00am - - - - - SSW 9 13 5 7 - - 0.0
28/06:30am - - - - - WSW 9 13 5 7 - - 0.0
28/06:00am - - - - - W 7 13 4 7 - - 0.0
28/05:30am - - - - - W 11 15 6 8 - - 0.0
28/05:00am - - - - - W 11 15 6 8 - - 0.0
28/04:30am - - - - - WSW 9 13 5 7 - - 0.0
28/04:00am - - - - - WNW 13 17 7 9 - - 0.0
28/03:30am - - - - - NW 13 20 7 11 - - 0.0
28/03:00am - - - - - NNW 13 20 7 11 - - 0.0
28/02:30am - - - - - NNW 13 19 7 10 - - 0.0
28/02:00am - - - - - NNW 13 17 7 9 - - 0.0

Other Formats:

Comma delimited format used in spreadsheet applications
http://www.bom.gov.au/fwo/IDQ60801/IDQ60801.95573.axf

JavaScript Object Notation format (JSON) in row-major order
http://www.bom.gov.au/fwo/IDQ60801/IDQ60801.95573.json